Ama, Louisiana
Current Conditions -  °F | °C
As of 1:53 AM on Saturday 01 Nov 2014 (Local Time) from KMSY Reporting Station
Few Clouds Few Clouds  
Wind Chill: 56°   Ceiling: Unl
Heat Index: 56°   Visibility: 10mi
Dew Point: 40°   Wind: 18mph
Humidity: 55%   Direction: 10°N
Pressure: 30.2"   Gusts: 28mph
Location:  29.95°N, 90.3°W
Report Text: KMSY 010653Z 01016G24KT 10SM FEW040 13/04 A3020 RMK AO2 PK WND 02032/0635 SLP230 T01330044
Loading
Personal Weather Stations






























Interactive Weather Map
Tropical Storm Tracking
New forecast layout! Learn more

10-Day Weather Forecast

Advertisements
Track Severe Weather on mobile